Time;durP1;ratioP1;P1;durP2;ratioP2;P2;SDS_P1;SDS_P2;PMS_P1;PMS_P2;Temp;Humidity;BMP_temperature;BMP_pressure;BME280_temperature;BME280_humidity;BME280_pressure;Samples;Min_cycle;Max_cycle;Signal;HPM_P1;HPM_P2
2022/08/20 00:00:56;;;;;;;1.33;1.13;;;25.60;57.80;;;-142.21;69.69;112049.66;5049972;28;20622;-73
2022/08/20 00:03:27;;;;;;;1.70;0.83;;;25.60;58.20;;;-142.21;70.05;112049.66;5043612;28;20210;-73
2022/08/20 00:06:00;;;;;;;1.07;0.97;;;25.60;58.20;;;-142.21;70.37;112049.66;5038008;28;20210;-73
2022/08/20 00:08:29;;;;;;;1.30;1.10;;;25.50;58.40;;;-142.21;70.56;112049.66;5050346;28;20611;-73
2022/08/20 00:10:57;;;;;;;1.40;1.30;;;25.50;58.50;;;-142.21;70.73;112049.66;5049754;28;20337;-73
2022/08/20 00:13:30;;;;;;;1.67;1.57;;;25.50;58.60;;;-142.21;70.87;112049.66;5051080;28;20201;-73
2022/08/20 00:15:58;;;;;;;1.30;1.00;;;25.50;58.70;;;-142.21;71.08;112049.66;5045210;28;20706;-73
2022/08/20 00:18:26;;;;;;;1.30;1.20;;;25.50;58.80;;;-142.21;71.46;112049.66;5052351;28;20256;-74
2022/08/20 00:20:56;;;;;;;1.40;1.30;;;25.40;58.90;;;-142.21;71.62;112049.66;5052799;28;20209;-73
2022/08/20 00:23:25;;;;;;;1.17;1.07;;;25.40;58.80;;;-142.21;71.68;112049.66;5053850;28;20205;-74
2022/08/20 00:25:53;;;;;;;1.00;1.00;;;25.40;59.00;;;-142.21;71.95;112049.66;5053237;28;20297;-73
2022/08/20 00:28:21;;;;;;;1.40;1.30;;;25.40;59.00;;;-142.21;71.97;112049.66;5053869;28;20241;-73
2022/08/20 00:30:49;;;;;;;1.30;1.20;;;25.40;59.10;;;-142.21;72.11;112049.66;5052292;28;20248;-73
2022/08/20 00:33:21;;;;;;;2.30;1.20;;;25.40;59.10;;;-142.21;72.28;112049.66;5054375;28;20734;-74
2022/08/20 00:35:53;;;;;;;1.80;1.13;;;25.40;59.20;;;-142.21;72.58;112049.66;5054222;28;20285;-73
2022/08/20 00:38:21;;;;;;;1.40;1.30;;;25.40;59.20;;;-142.21;72.79;112049.66;5052643;28;20213;-74
2022/08/20 00:40:55;;;;;;;1.10;1.10;;;25.40;59.50;;;-142.21;72.97;112049.66;5054531;28;20234;-74
2022/08/20 00:43:32;;;;;;;1.50;1.40;;;25.30;59.70;;;-142.21;73.57;112049.66;5042920;28;20273;-73
2022/08/20 00:46:02;;;;;;;1.20;1.10;;;25.30;60.00;;;-142.21;73.78;112049.66;5052027;28;20212;-74
2022/08/20 00:48:34;;;;;;;0.97;0.97;;;25.30;59.90;;;-142.21;74.04;112049.66;5054792;28;20285;-73
2022/08/20 00:51:14;;;;;;;1.50;1.40;;;25.30;60.10;;;-142.21;74.40;112049.66;5053884;28;20264;-73
2022/08/20 00:53:42;;;;;;;1.83;1.63;;;25.20;60.30;;;-142.21;74.22;112049.66;5047458;28;20191;-73
2022/08/20 00:56:12;;;;;;;3.23;2.00;;;25.20;60.20;;;-142.21;74.35;112049.66;5052951;28;20213;-72
2022/08/20 00:58:42;;;;;;;1.20;1.10;;;25.30;60.40;;;-142.21;74.46;112049.66;5052821;28;20693;-73
2022/08/20 01:01:10;;;;;;;1.90;1.50;;;25.20;61.50;;;-142.21;75.01;112049.66;5048961;28;20293;-72
2022/08/20 01:03:38;;;;;;;1.20;1.10;;;25.20;60.70;;;-142.21;74.68;112049.66;5051499;28;20219;-72
2022/08/20 01:06:10;;;;;;;1.50;1.40;;;25.20;60.70;;;-142.21;74.75;112049.66;5052369;28;20206;-73
2022/08/20 01:08:41;;;;;;;1.50;1.40;;;25.20;60.90;;;-142.21;75.46;112049.66;5052561;28;20646;-73
2022/08/20 01:11:12;;;;;;;1.50;1.40;;;25.10;61.00;;;-142.21;75.76;112049.66;5054041;28;20308;-73
2022/08/20 01:13:43;;;;;;;1.87;1.33;;;25.10;61.30;;;-142.21;75.93;112049.66;5053747;28;20538;-73
2022/08/20 01:16:21;;;;;;;1.43;1.23;;;25.10;61.40;;;-142.21;76.03;112049.66;5048077;28;20282;-72
2022/08/20 01:18:51;;;;;;;1.53;1.43;;;25.00;61.60;;;-142.21;75.71;112049.66;5051470;28;20225;-72
2022/08/20 01:21:25;;;;;;;1.67;1.47;;;25.10;61.40;;;-142.21;75.96;112049.66;5052863;28;20228;-73
2022/08/20 01:24:05;;;;;;;1.83;1.50;;;25.10;61.40;;;-142.21;76.14;112049.66;5052246;28;20234;-72
2022/08/20 01:26:39;;;;;;;1.70;1.60;;;25.10;61.90;;;-142.21;76.26;112049.66;5052409;28;20198;-72
2022/08/20 01:29:12;;;;;;;1.60;1.50;;;25.10;61.90;;;-142.21;76.50;112049.66;5051472;28;20194;-72
2022/08/20 01:31:41;;;;;;;1.50;1.40;;;25.10;61.60;;;-142.21;76.82;112049.66;5051685;28;20420;-73
2022/08/20 01:34:12;;;;;;;1.70;1.60;;;25.10;61.70;;;-142.21;77.16;112049.66;5049949;28;20225;-72
2022/08/20 01:36:45;;;;;;;1.57;1.47;;;25.10;62.00;;;-142.21;76.87;112049.66;5045414;28;20724;-72
2022/08/20 01:39:17;;;;;;;1.50;1.40;;;25.10;61.90;;;-142.21;77.18;112049.66;5052197;28;20222;-73
2022/08/20 01:42:07;;;;;;;2.10;1.90;;;25.10;62.10;;;-142.21;77.04;112049.66;5051816;28;20190;-73
2022/08/20 01:44:37;;;;;;;1.97;1.73;;;25.10;62.10;;;-142.21;77.24;112049.66;5053570;28;20194;-72
2022/08/20 01:47:12;;;;;;;1.90;1.80;;;25.20;61.80;;;-142.21;76.90;112049.66;5053080;28;20205;-72
2022/08/20 01:49:44;;;;;;;1.57;1.40;;;25.20;61.90;;;-142.21;77.25;112049.66;5052266;28;20259;-73
2022/08/20 01:52:26;;;;;;;2.30;1.57;;;25.20;61.70;;;-142.21;77.37;112049.66;5052860;28;20243;-73
2022/08/20 01:54:53;;;;;;;2.00;1.80;;;25.20;62.00;;;-142.21;77.32;112049.66;5051555;28;20289;-74
2022/08/20 01:57:26;;;;;;;1.77;1.67;;;25.20;61.90;;;-142.21;77.28;112049.66;5051964;28;20286;-73
2022/08/20 01:59:53;;;;;;;1.90;1.77;;;25.20;62.20;;;-142.21;77.62;112049.66;5053224;28;20229;-73
2022/08/20 02:02:23;;;;;;;1.73;1.50;;;25.20;62.20;;;-142.21;77.68;112049.66;5052619;28;20637;-73
2022/08/20 02:04:50;;;;;;;2.67;2.00;;;25.10;62.10;;;-142.21;77.61;112049.66;5049536;28;20223;-73
2022/08/20 02:07:21;;;;;;;1.90;1.80;;;25.10;62.10;;;-142.21;77.70;112049.66;5051491;28;20301;-72
2022/08/20 02:09:50;;;;;;;2.20;2.00;;;25.10;62.40;;;-142.21;77.79;112049.66;5052565;28;20204;-73
2022/08/20 02:12:18;;;;;;;1.97;1.77;;;25.10;62.50;;;-142.21;78.41;112049.66;5062394;28;20279;-72
2022/08/20 02:14:55;;;;;;;2.40;1.90;;;25.00;63.00;;;-142.21;78.74;112049.66;5054138;28;20197;-73
2022/08/20 02:17:25;;;;;;;1.67;1.57;;;24.90;63.50;;;-142.21;79.07;112049.66;5052048;28;20230;-72
2022/08/20 02:19:57;;;;;;;1.77;1.67;;;24.80;63.80;;;-142.21;79.48;112049.66;5052121;28;20194;-72
2022/08/20 02:22:35;;;;;;;2.30;1.90;;;24.80;64.60;;;-142.21;79.36;112049.66;5053415;28;20686;-73
2022/08/20 02:25:03;;;;;;;1.87;1.77;;;24.60;64.40;;;-142.21;79.31;112049.66;5052560;28;20255;-73
2022/08/20 02:27:31;;;;;;;2.03;1.80;;;24.70;64.40;;;-142.21;79.51;112049.66;5052811;28;20605;-73
2022/08/20 02:30:00;;;;;;;2.40;2.00;;;24.80;65.30;;;-142.21;79.74;112049.66;5052006;28;20233;-73
2022/08/20 02:32:27;;;;;;;2.00;1.80;;;24.80;64.30;;;-142.21;79.99;112049.66;5052636;28;20217;-73
2022/08/20 02:34:54;;;;;;;2.23;2.03;;;24.80;64.20;;;-142.21;79.53;112049.66;5046148;28;20247;-74
2022/08/20 02:37:21;;;;;;;1.87;1.77;;;24.80;64.20;;;-142.21;79.62;112049.66;5052854;28;20205;-74
2022/08/20 02:39:49;;;;;;;2.47;1.90;;;24.90;64.30;;;-142.21;79.62;112049.66;5051889;28;20198;-74
2022/08/20 02:42:16;;;;;;;1.97;1.77;;;25.00;64.00;;;-142.21;79.51;112049.66;5051922;28;20220;-74
2022/08/20 02:44:43;;;;;;;2.10;1.90;;;25.00;63.90;;;-142.21;79.79;112049.66;5052236;28;20224;-73
2022/08/20 02:47:11;;;;;;;2.23;2.03;;;24.90;64.10;;;-142.21;79.66;112049.66;5052466;28;20201;-73
2022/08/20 02:49:39;;;;;;;1.80;1.70;;;25.00;64.00;;;-142.21;79.53;112049.66;5052171;28;20205;-72
2022/08/20 02:52:06;;;;;;;2.47;1.90;;;25.00;63.90;;;-142.21;79.41;112049.66;5052063;28;20308;-73
2022/08/20 02:54:34;;;;;;;2.63;2.10;;;25.00;63.90;;;-142.21;79.66;112049.66;5052859;28;20288;-72
2022/08/20 02:57:01;;;;;;;2.80;2.10;;;25.00;63.90;;;-142.21;79.69;112049.66;5051302;28;20307;-74
2022/08/20 02:59:28;;;;;;;2.30;2.10;;;25.10;63.90;;;-142.21;79.42;112049.66;5052299;28;20277;-73
2022/08/20 03:01:57;;;;;;;2.30;2.10;;;25.00;63.70;;;-142.21;79.43;112049.66;5051859;28;20217;-73
2022/08/20 03:04:26;;;;;;;2.17;1.97;;;25.10;63.70;;;-142.21;79.79;112049.66;5052163;28;20216;-73
2022/08/20 03:06:53;;;;;;;2.93;2.13;;;25.00;63.80;;;-142.21;79.64;112049.66;5052025;28;20205;-74
2022/08/20 03:09:20;;;;;;;2.30;2.10;;;25.00;63.90;;;-142.21;79.72;112049.66;5040122;28;20289;-73
2022/08/20 03:11:48;;;;;;;3.40;1.93;;;25.00;63.90;;;-142.21;79.80;112049.66;5051905;28;20224;-73
2022/08/20 03:14:15;;;;;;;2.63;2.43;;;25.00;63.90;;;-142.21;80.38;112049.66;5052080;28;20243;-73
2022/08/20 03:16:42;;;;;;;3.60;2.70;;;25.00;64.20;;;-142.21;80.59;112049.66;5051998;28;20212;-72
2022/08/20 03:19:09;;;;;;;2.97;2.37;;;24.90;64.40;;;-142.21;80.24;112049.66;5051509;28;20643;-73
2022/08/20 03:21:38;;;;;;;2.40;2.20;;;24.90;64.40;;;-142.21;80.50;112049.66;5052001;28;20312;-73
2022/08/20 03:24:05;;;;;;;2.50;2.30;;;24.90;64.50;;;-142.21;80.52;112049.66;5051879;28;20707;-73
2022/08/20 03:26:33;;;;;;;2.73;2.37;;;24.90;64.50;;;-142.21;80.36;112049.66;5051436;28;20202;-73
2022/08/20 03:29:00;;;;;;;3.07;2.80;;;24.90;64.60;;;-142.21;80.93;112049.66;5051352;28;20209;-73
2022/08/20 03:31:27;;;;;;;3.63;2.47;;;24.90;64.70;;;-142.21;81.19;112049.66;5052511;28;20202;-73
2022/08/20 03:33:54;;;;;;;2.93;2.40;;;24.90;64.80;;;-142.21;81.08;112049.66;5051359;28;20237;-73
2022/08/20 03:36:22;;;;;;;3.53;2.70;;;24.90;65.70;;;-142.21;81.17;112049.66;5052319;28;20233;-73
2022/08/20 03:38:51;;;;;;;3.33;2.47;;;24.90;64.90;;;-142.21;80.99;112049.66;5051124;28;20264;-74
2022/08/20 03:41:18;;;;;;;3.00;2.40;;;24.90;64.80;;;-142.21;81.16;112049.66;5051128;28;20233;-74
2022/08/20 03:43:45;;;;;;;4.17;2.80;;;25.00;64.70;;;-142.21;81.40;112049.66;5051248;28;20202;-74
2022/08/20 03:46:12;;;;;;;4.67;2.40;;;25.00;64.50;;;-142.21;81.67;112049.66;5049334;28;20210;-73
2022/08/20 03:48:40;;;;;;;2.87;2.43;;;25.00;64.50;;;-142.21;81.68;112049.66;5050595;28;20206;-73
2022/08/20 03:51:07;;;;;;;3.60;2.93;;;25.00;64.60;;;-142.21;81.87;112049.66;5048890;28;20233;-73
2022/08/20 03:53:34;;;;;;;2.90;2.60;;;25.00;64.70;;;-142.21;81.50;112049.66;5055318;28;20225;-73
2022/08/20 03:56:05;;;;;;;2.70;2.50;;;25.00;64.60;;;-142.21;81.83;112049.66;5054996;28;20256;-73
2022/08/20 03:58:34;;;;;;;2.70;2.50;;;25.00;64.50;;;-142.21;82.04;112049.66;5052081;28;20276;-72
2022/08/20 04:01:01;;;;;;;3.50;2.37;;;25.00;64.70;;;-142.21;81.70;112049.66;5042946;28;20198;-73
2022/08/20 04:03:29;;;;;;;2.90;2.70;;;24.90;64.60;;;-142.21;82.04;112049.66;5056008;28;20204;-73
2022/08/20 04:05:56;;;;;;;3.20;2.63;;;24.90;64.70;;;-142.21;82.13;112049.66;5051911;28;20292;-74
2022/08/20 04:08:29;;;;;;;2.60;2.40;;;24.90;64.70;;;-142.21;82.19;112049.66;5055593;28;20570;-74
2022/08/20 04:10:58;;;;;;;3.17;2.70;;;24.90;64.90;;;-142.21;82.49;112049.66;5054920;28;20556;-73
2022/08/20 04:13:29;;;;;;;2.97;2.43;;;24.80;65.00;;;-142.21;82.57;112049.66;5055536;28;20229;-73
2022/08/20 04:15:56;;;;;;;3.27;2.80;;;24.80;65.30;;;-142.21;82.85;112049.66;5053774;28;20211;-73
2022/08/20 04:18:28;;;;;;;3.50;2.80;;;24.80;65.30;;;-142.21;82.76;112049.66;5055562;28;20284;-73
2022/08/20 04:20:56;;;;;;;2.67;2.47;;;24.80;65.20;;;-142.21;82.92;112049.66;5054594;28;20197;-73
2022/08/20 04:23:23;;;;;;;3.03;2.73;;;24.80;65.30;;;-142.21;82.66;112049.66;5055079;28;20230;-73
2022/08/20 04:25:50;;;;;;;2.93;2.70;;;24.80;65.30;;;-142.21;82.73;112049.66;5053491;28;20232;-74
2022/08/20 04:28:25;;;;;;;2.80;2.60;;;24.80;65.20;;;-142.21;82.61;112049.66;5054562;28;20580;-73
2022/08/20 04:30:56;;;;;;;2.97;2.73;;;24.80;65.30;;;-142.21;82.87;112049.66;5054304;28;20231;-73
2022/08/20 04:33:26;;;;;;;3.13;2.63;;;24.80;65.10;;;-142.21;82.55;112049.66;5054096;28;20247;-73
2022/08/20 04:35:59;;;;;;;3.70;2.93;;;24.80;65.10;;;-142.21;82.87;112049.66;5054720;28;20216;-72
2022/08/20 04:38:27;;;;;;;3.50;2.67;;;24.80;65.10;;;-142.21;83.01;112049.66;5054799;28;20190;-73
2022/08/20 04:40:57;;;;;;;6.30;3.23;;;24.80;65.30;;;-142.21;82.94;112049.66;5053717;28;20201;-74
2022/08/20 04:43:28;;;;;;;2.93;2.57;;;24.80;65.20;;;-142.21;83.46;112049.66;5070318;28;20584;-74
2022/08/20 04:46:00;;;;;;;3.20;2.90;;;24.80;65.30;;;-142.21;83.25;112049.66;5053695;28;20243;-72
2022/08/20 04:48:28;;;;;;;3.40;3.07;;;24.80;65.50;;;-142.21;83.33;112049.66;5055102;28;20198;-72
2022/08/20 04:50:58;;;;;;;4.97;3.07;;;24.80;65.50;;;-142.21;83.46;112049.66;5053033;28;20296;-73
2022/08/20 04:53:28;;;;;;;3.13;2.83;;;24.70;65.60;;;-142.21;83.85;112049.66;5054411;28;20709;-73
2022/08/20 04:55:59;;;;;;;3.30;2.70;;;24.70;65.60;;;-142.21;83.88;112049.66;5054099;28;20193;-73
2022/08/20 04:58:31;;;;;;;3.20;2.80;;;24.70;65.90;;;-142.21;84.08;112049.66;5053698;28;20236;-73
2022/08/20 05:01:03;;;;;;;3.23;2.93;;;24.60;66.10;;;-142.21;84.28;112049.66;5053631;28;20233;-73
2022/08/20 05:03:32;;;;;;;3.37;3.07;;;24.50;66.30;;;-142.21;84.80;112049.66;5053306;28;20187;-73
2022/08/20 05:06:00;;;;;;;3.73;3.20;;;24.50;66.50;;;-142.21;84.43;112049.66;5053776;28;20201;-73
2022/08/20 05:08:28;;;;;;;4.17;3.10;;;24.50;66.70;;;-142.21;84.81;112049.66;5045092;28;20216;-73
2022/08/20 05:10:59;;;;;;;3.23;2.93;;;24.50;66.40;;;-142.21;84.43;112049.66;5053552;28;20655;-73
2022/08/20 05:13:28;;;;;;;3.73;2.97;;;24.50;66.40;;;-142.21;84.50;112049.66;5050399;28;20212;-70
2022/08/20 05:15:56;;;;;;;3.23;2.93;;;24.60;66.40;;;-142.21;84.87;112049.66;5054101;28;20243;-77
2022/08/20 05:18:25;;;;;;;3.87;2.70;;;24.60;66.30;;;-142.21;84.87;112049.66;5050316;28;20202;-77
2022/08/20 05:21:03;;;;;;;3.20;2.90;;;24.50;66.30;;;-142.21;84.94;112049.66;5054203;28;20219;-72
2022/08/20 05:23:30;;;;;;;3.80;2.97;;;24.50;66.40;;;-142.21;85.64;112049.66;5041208;28;20201;-74
2022/08/20 05:25:58;;;;;;;3.50;3.20;;;24.40;66.80;;;-142.21;86.09;112049.66;5034354;28;20216;-73
2022/08/20 05:28:31;;;;;;;3.63;3.00;;;24.30;66.90;;;-142.21;86.31;112049.66;5053883;28;20289;-73
2022/08/20 05:31:00;;;;;;;3.30;2.90;;;24.30;67.40;;;-142.21;86.17;112049.66;5043130;28;20229;-73
2022/08/20 05:33:29;;;;;;;3.77;3.40;;;24.30;67.50;;;-142.21;86.43;112049.66;5034525;28;20313;-74
2022/08/20 05:35:57;;;;;;;4.47;3.20;;;24.30;67.70;;;-142.21;86.31;112049.66;5051708;28;20826;-73
2022/08/20 05:38:29;;;;;;;3.40;2.87;;;24.30;67.60;;;-142.21;85.90;112049.66;5053980;28;20262;-74
2022/08/20 05:40:57;;;;;;;4.50;3.47;;;24.40;67.40;;;-142.21;85.89;112049.66;5055214;28;20201;-73
2022/08/20 05:43:24;;;;;;;2.90;2.70;;;24.40;67.20;;;-142.21;86.10;112049.66;5055375;28;20237;-73
2022/08/20 05:45:51;;;;;;;3.53;3.23;;;24.50;67.90;;;-142.21;86.09;112049.66;5044152;28;20205;-73
2022/08/20 05:48:24;;;;;;;4.83;3.10;;;24.50;67.00;;;-142.21;85.35;112049.66;5053449;28;21037;-73
2022/08/20 05:50:54;;;;;;;3.93;3.10;;;24.50;67.00;;;-142.21;85.72;112049.66;5049271;28;20209;-73
2022/08/20 05:53:24;;;;;;;5.70;3.30;;;24.60;67.10;;;-142.21;85.32;112049.66;5053008;28;20728;-73
2022/08/20 05:55:52;;;;;;;3.40;3.10;;;24.60;67.10;;;-142.21;85.28;112049.66;5041167;28;20234;-73
2022/08/20 05:58:23;;;;;;;4.30;3.10;;;24.60;67.10;;;-142.21;84.97;112049.66;5052038;28;20272;-74
2022/08/20 06:00:52;;;;;;;3.20;2.90;;;24.60;67.10;;;-142.21;85.36;112049.66;5054811;28;20199;-73
2022/08/20 06:06:07;;;;;;;9.73;3.30;;;24.60;67.10;;;-142.21;84.72;112049.66;5051060;28;20224;-73
2022/08/20 06:08:34;;;;;;;5.10;3.40;;;24.60;67.10;;;-142.21;85.08;112049.66;5053177;28;20292;-73
2022/08/20 06:11:01;;;;;;;3.33;3.00;;;24.70;67.20;;;-142.21;84.92;112049.66;5051361;28;20730;-73
2022/08/20 06:13:29;;;;;;;3.33;3.03;;;24.70;67.20;;;-142.21;84.97;112049.66;5017751;28;20232;-73
2022/08/20 06:15:57;;;;;;;3.90;3.13;;;24.60;67.00;;;-142.21;84.72;112049.66;5047002;28;20649;-73
2022/08/20 06:18:24;;;;;;;3.17;2.87;;;24.70;67.20;;;-142.21;84.13;112049.66;5052499;28;20205;-73
2022/08/20 06:20:54;;;;;;;3.37;3.07;;;24.70;66.70;;;-142.21;83.76;112049.66;5053575;28;20263;-73
2022/08/20 06:23:24;;;;;;;2.83;2.63;;;24.80;66.70;;;-142.21;83.81;112049.66;5039548;28;20285;-73
2022/08/20 06:25:52;;;;;;;3.20;2.90;;;24.80;66.70;;;-142.21;83.61;112049.66;5050489;28;20201;-72
2022/08/20 06:28:19;;;;;;;3.60;3.07;;;24.90;66.70;;;-142.21;83.35;112049.66;5047207;28;20190;-72
2022/08/20 06:30:47;;;;;;;4.23;3.33;;;24.90;66.60;;;-142.21;83.30;112049.66;5054502;28;20310;-74
2022/08/20 06:33:14;;;;;;;3.63;3.10;;;24.80;66.60;;;-142.21;83.56;112049.66;5045828;28;20222;-73
2022/08/20 06:35:43;;;;;;;3.43;2.67;;;24.80;66.70;;;-142.21;83.47;112049.66;5055188;28;20204;-73
2022/08/20 06:38:11;;;;;;;3.37;3.07;;;24.80;66.80;;;-142.21;83.33;112049.66;5053299;28;20289;-73
2022/08/20 06:40:41;;;;;;;3.90;3.50;;;24.80;66.90;;;-142.21;83.05;112049.66;5038072;28;20202;-73
2022/08/20 06:43:08;;;;;;;3.50;3.20;;;24.80;66.60;;;-142.21;83.37;112049.66;5047924;28;20197;-73
2022/08/20 06:45:37;;;;;;;4.03;3.20;;;24.80;66.40;;;-142.21;83.11;112049.66;5016902;28;20780;-73
2022/08/20 06:48:09;;;;;;;4.07;3.27;;;24.90;66.50;;;-142.21;83.16;112049.66;5052118;28;20304;-72
2022/08/20 06:50:41;;;;;;;5.47;3.00;;;25.00;66.40;;;-142.21;83.33;112049.66;5043911;28;20290;-73
2022/08/20 06:53:12;;;;;;;3.73;3.20;;;24.90;66.30;;;-142.21;83.30;112049.66;5047074;28;20206;-73
2022/08/20 06:55:46;;;;;;;3.20;2.90;;;25.00;66.40;;;-142.21;83.61;112049.66;5051765;28;20670;-72
2022/08/20 06:58:14;;;;;;;3.43;2.63;;;24.90;66.60;;;-142.21;83.47;112049.66;5040449;28;20341;-74
2022/08/20 07:00:44;;;;;;;4.00;3.07;;;24.80;66.60;;;-142.21;83.71;112049.66;5046374;28;20198;-73
2022/08/20 07:03:12;;;;;;;3.53;3.23;;;24.80;66.90;;;-142.21;83.88;112049.66;5053575;28;20581;-72
2022/08/20 07:05:43;;;;;;;3.63;3.30;;;24.90;66.90;;;-142.21;83.24;112049.66;5046733;28;20236;-72
2022/08/20 07:08:13;;;;;;;4.13;3.30;;;24.90;66.70;;;-142.21;83.16;112049.66;5044417;28;20293;-72
2022/08/20 07:10:43;;;;;;;3.23;2.80;;;24.80;66.70;;;-142.21;83.24;112049.66;5040892;28;20205;-73
2022/08/20 07:13:11;;;;;;;3.43;3.13;;;24.90;66.70;;;-142.21;82.99;112049.66;5050879;28;20760;-72
2022/08/20 07:15:39;;;;;;;3.13;2.83;;;25.00;66.40;;;-142.21;82.70;112049.66;5052024;28;20205;-72
2022/08/20 07:18:07;;;;;;;3.67;3.33;;;25.20;66.10;;;-142.21;81.84;112049.66;5050830;28;20233;-71
2022/08/20 07:20:39;;;;;;;3.63;3.03;;;25.30;65.70;;;-142.21;81.81;112049.66;5052160;28;20655;-72
2022/08/20 07:23:10;;;;;;;3.17;2.87;;;25.30;65.60;;;-142.21;81.44;112049.66;5044016;28;20635;-73
2022/08/20 07:25:39;;;;;;;4.10;3.27;;;25.40;65.30;;;-142.21;81.51;112049.66;5040548;28;20193;-73
2022/08/20 07:28:14;;;;;;;3.07;2.70;;;25.40;65.30;;;-142.21;81.07;112049.66;5054279;28;20288;-71
2022/08/20 07:33:27;;;;;;;4.07;2.80;;;25.30;65.10;;;-142.21;81.61;112049.66;5052219;28;20295;-73
2022/08/20 07:35:55;;;;;;;3.77;2.60;;;25.20;65.80;;;-142.21;81.33;112049.66;5055994;28;20285;-73
2022/08/20 07:38:25;;;;;;;2.90;2.60;;;25.30;65.50;;;-142.21;80.81;112049.66;5055680;28;20201;-72
2022/08/20 07:40:55;;;;;;;3.87;2.73;;;25.30;65.40;;;-142.21;81.22;112049.66;5054527;28;20237;-73
2022/08/20 07:43:24;;;;;;;2.90;2.37;;;25.40;65.30;;;-142.21;81.17;112049.66;5055989;28;20201;-73
2022/08/20 07:45:54;;;;;;;3.00;2.60;;;25.40;65.10;;;-142.21;80.80;112049.66;5058929;28;20267;-73
2022/08/20 07:48:24;;;;;;;3.00;2.70;;;25.50;64.80;;;-142.21;80.88;112049.66;5054582;28;20198;-73
2022/08/20 07:50:52;;;;;;;3.80;2.60;;;25.50;64.80;;;-142.21;80.75;112049.66;5056203;28;20515;-74
2022/08/20 07:53:20;;;;;;;2.90;2.33;;;25.40;64.80;;;-142.21;80.87;112049.66;5054755;28;20257;-72
2022/08/20 07:55:47;;;;;;;2.60;2.37;;;25.40;65.00;;;-142.21;80.83;112049.66;5020833;28;20544;-73
2022/08/20 07:58:20;;;;;;;2.87;2.33;;;25.40;65.00;;;-142.21;80.91;112049.66;5053150;28;20316;-74
2022/08/20 08:00:48;;;;;;;2.30;2.10;;;25.40;65.10;;;-142.21;81.16;112049.66;5055425;28;20190;-72
2022/08/20 08:03:16;;;;;;;3.70;2.40;;;25.50;64.90;;;-142.21;81.23;112049.66;5054427;28;20243;-73
2022/08/20 08:05:48;;;;;;;2.33;2.13;;;25.50;65.60;;;-142.21;81.49;112049.66;5054213;28;20293;-72
2022/08/20 08:08:23;;;;;;;2.67;2.27;;;25.60;64.90;;;-142.21;80.78;112049.66;5054382;28;20247;-73
2022/08/20 08:10:57;;;;;;;2.43;2.17;;;25.50;64.80;;;-142.21;81.04;112049.66;5036399;28;20908;-74
2022/08/20 08:13:26;;;;;;;2.77;2.23;;;25.60;64.60;;;-142.21;80.92;112049.66;5054702;28;20224;-74
2022/08/20 08:16:00;;;;;;;2.97;2.70;;;25.60;64.60;;;-142.21;80.87;112049.66;5054894;28;20212;-75
2022/08/20 08:18:36;;;;;;;5.57;2.20;;;25.60;64.60;;;-142.21;80.95;112049.66;5055439;28;20224;-75
2022/08/20 08:21:07;;;;;;;2.40;2.20;;;25.50;64.70;;;-142.21;80.57;112049.66;5054113;28;20200;-75
2022/08/20 08:23:35;;;;;;;2.80;2.37;;;25.60;64.60;;;-142.21;81.24;112049.66;5055417;28;20202;-75
2022/08/20 08:26:06;;;;;;;4.13;2.30;;;25.50;64.90;;;-142.21;81.65;112049.66;5053940;28;20205;-74
2022/08/20 08:28:35;;;;;;;2.60;2.40;;;25.30;65.30;;;-142.21;81.52;112049.66;5053039;28;20208;-73
2022/08/20 08:31:04;;;;;;;2.17;1.97;;;25.30;65.20;;;-142.21;81.31;112049.66;5062531;28;20206;-74
2022/08/20 08:33:32;;;;;;;2.67;2.37;;;25.30;65.10;;;-142.21;81.63;112049.66;5055161;28;20238;-72
2022/08/20 08:36:03;;;;;;;1.93;1.83;;;25.40;65.30;;;-142.21;81.92;112049.66;5054859;28;20207;-72
2022/08/20 08:38:33;;;;;;;2.27;2.00;;;25.30;65.80;;;-142.21;81.79;112049.66;5053021;28;20206;-72
2022/08/20 08:41:15;;;;;;;2.50;2.30;;;25.30;65.80;;;-142.21;82.64;112049.66;5025533;28;20213;-73
2022/08/20 08:43:46;;;;;;;3.63;2.47;;;25.20;66.50;;;-142.21;83.10;112049.66;5055134;28;20224;-72
2022/08/20 08:46:21;;;;;;;2.27;2.00;;;25.30;66.60;;;-142.21;83.48;112049.66;5059127;28;20666;-76
2022/08/20 08:48:53;;;;;;;2.30;2.10;;;25.20;66.90;;;-142.21;83.50;112049.66;5049846;28;20209;-76
2022/08/20 08:51:30;;;;;;;2.87;2.00;;;25.30;66.80;;;-142.21;83.18;112049.66;5053141;28;20631;-76
2022/08/20 08:54:06;;;;;;;2.10;1.90;;;25.40;66.80;;;-142.21;83.02;112049.66;5052162;28;20750;-77
2022/08/20 08:56:34;;;;;;;2.40;1.90;;;25.50;66.60;;;-142.21;83.23;112049.66;5054243;28;20310;-76
2022/08/20 08:59:07;;;;;;;3.13;2.13;;;25.50;66.10;;;-142.21;83.09;112049.66;5050769;28;20233;-75
2022/08/20 09:01:45;;;;;;;2.40;2.20;;;25.50;66.10;;;-142.21;82.83;112049.66;5048091;28;20257;-77
2022/08/20 09:04:14;;;;;;;2.10;1.90;;;25.50;66.20;;;-142.21;82.05;112049.66;5058129;28;20193;-76
2022/08/20 09:06:43;;;;;;;2.60;1.90;;;25.50;65.80;;;-142.21;82.54;112049.66;5054375;28;20202;-78
2022/08/20 09:09:21;;;;;;;3.30;2.10;;;25.40;66.10;;;-142.21;82.70;112049.66;5046363;28;20755;-77
2022/08/20 09:11:53;;;;;;;1.80;1.70;;;25.30;66.30;;;-142.21;82.63;112049.66;5054574;28;20200;-76
2022/08/20 09:14:24;;;;;;;2.27;1.87;;;25.30;66.30;;;-142.21;83.12;112049.66;5053940;28;20694;-77
2022/08/20 09:16:52;;;;;;;2.40;2.20;;;25.40;66.80;;;-142.21;83.25;112049.66;5063983;28;20277;-77
2022/08/20 09:19:20;;;;;;;2.03;1.83;;;25.50;66.40;;;-142.21;83.51;112049.66;5053843;28;20202;-75
2022/08/20 09:21:47;;;;;;;2.10;1.90;;;25.60;66.30;;;-142.21;82.64;112049.66;5051195;28;20253;-75
2022/08/20 09:24:15;;;;;;;2.20;2.00;;;25.60;65.90;;;-142.21;83.50;112049.66;5050740;28;20205;-76
2022/08/20 09:26:42;;;;;;;1.70;1.60;;;25.60;66.20;;;-142.21;84.08;112049.66;5053688;28;20292;-76
2022/08/20 09:29:10;;;;;;;2.77;2.23;;;25.60;66.10;;;-142.21;84.09;112049.66;5053287;28;20280;-76
2022/08/20 09:31:37;;;;;;;2.23;2.00;;;25.70;66.60;;;-142.21;84.09;112049.66;5053208;28;20210;-76
2022/08/20 09:34:06;;;;;;;2.33;1.83;;;25.70;66.30;;;-142.21;83.55;112049.66;5047978;28;20233;-76
2022/08/20 09:36:34;;;;;;;2.67;2.00;;;25.80;66.30;;;-142.21;83.68;112049.66;5053758;28;20206;-76
2022/08/20 09:39:02;;;;;;;2.27;1.93;;;25.70;66.40;;;-142.21;83.68;112049.66;5047717;28;20305;-75
2022/08/20 09:41:29;;;;;;;2.37;1.90;;;25.70;66.70;;;-142.21;82.92;112049.66;5072192;28;20774;-76
2022/08/20 09:43:57;;;;;;;2.10;1.90;;;25.80;66.40;;;-142.21;81.07;112049.66;5073836;28;20598;-75
2022/08/20 09:46:25;;;;;;;2.60;1.80;;;26.00;65.30;;;-142.21;79.29;112049.66;5059358;28;20525;-75
2022/08/20 09:48:52;;;;;;;2.03;1.60;;;26.10;64.60;;;-142.21;79.39;112049.66;5053833;28;20640;-76
2022/08/20 09:51:21;;;;;;;2.10;1.90;;;26.20;64.30;;;-142.21;78.11;112049.66;5053020;28;20201;-75
2022/08/20 09:53:49;;;;;;;1.93;1.77;;;26.20;63.90;;;-142.21;78.43;112049.66;5054122;28;20209;-76
2022/08/20 09:56:17;;;;;;;2.23;2.03;;;26.20;64.00;;;-142.21;78.60;112049.66;5044024;28;20265;-76
2022/08/20 09:58:54;;;;;;;2.10;1.90;;;26.20;64.00;;;-142.21;78.38;112049.66;5053550;28;20240;-76
2022/08/20 10:01:23;;;;;;;2.00;1.73;;;26.30;63.90;;;-142.21;78.81;112049.66;5052980;28;20289;-75
2022/08/20 10:03:51;;;;;;;1.47;1.37;;;26.50;64.30;;;-142.21;76.21;112049.66;5053281;28;20210;-76
2022/08/20 10:06:20;;;;;;;1.23;1.20;;;26.80;64.00;;;-142.21;71.74;112049.66;5052978;28;20242;-76
2022/08/20 10:08:49;;;;;;;2.00;1.70;;;27.10;61.30;;;-142.21;70.76;112049.66;5053549;28;20202;-76
2022/08/20 10:11:18;;;;;;;1.93;1.53;;;27.30;60.20;;;-142.21;72.75;112049.66;5052199;28;20659;-76
2022/08/20 10:13:45;;;;;;;1.70;1.47;;;27.60;60.80;;;-142.21;70.08;112049.66;5041982;28;20210;-76
2022/08/20 10:16:12;;;;;;;1.50;1.40;;;27.80;59.60;;;-142.21;67.66;112049.66;5052010;28;20237;-76